createdAt,value
2022-09-15T00:01:57.954Z,97406.97
2022-09-15T00:04:24.568Z,97405.38
2022-09-15T00:06:51.189Z,97404.59
2022-09-15T00:09:17.731Z,97391.81
2022-09-15T00:11:44.236Z,97398.25
2022-09-15T00:14:10.940Z,97393.41
2022-09-15T00:16:38.542Z,97391.59
2022-09-15T00:19:06.612Z,97380.75
2022-09-15T00:21:35.045Z,97390.97
2022-09-15T00:24:02.355Z,97388.38
2022-09-15T00:26:30.179Z,97378.66
2022-09-15T00:28:58.238Z,97379.97
2022-09-15T00:31:26.640Z,97382.34
2022-09-15T00:33:58.645Z,97381.53
2022-09-15T00:36:26.922Z,97383.63
2022-09-15T00:38:54.334Z,97398.59
2022-09-15T00:41:22.639Z,97395.13
2022-09-15T00:43:54.954Z,97394.81
2022-09-15T00:46:39.129Z,97381.94
2022-09-15T00:49:14.711Z,97371.25
2022-09-15T00:52:07.330Z,97364.28
2022-09-15T00:54:52.981Z,97364.00
2022-09-15T00:57:26.791Z,97366.88
2022-09-15T00:59:55.486Z,97383.72
2022-09-15T01:02:24.882Z,97376.78
2022-09-15T01:04:57.529Z,97380.56
2022-09-15T01:07:32.122Z,97380.34
2022-09-15T01:10:02.959Z,97384.72
2022-09-15T01:12:29.475Z,97392.59
2022-09-15T01:14:56.018Z,97387.63
2022-09-15T01:17:44.566Z,97387.34
2022-09-15T01:20:26.391Z,97391.31
2022-09-15T01:22:53.060Z,97389.75
2022-09-15T01:25:45.074Z,97383.28
2022-09-15T01:28:46.986Z,97372.56
2022-09-15T01:31:25.539Z,97371.00
2022-09-15T01:33:54.144Z,97362.16
2022-09-15T01:36:31.134Z,97362.38
2022-09-15T01:39:05.294Z,97364.53
2022-09-15T01:41:50.296Z,97357.44
2022-09-15T01:44:24.806Z,97351.59
2022-09-15T01:46:57.169Z,97357.50
2022-09-15T01:49:29.475Z,97364.25
2022-09-15T01:51:56.060Z,97358.13
2022-09-15T01:54:28.184Z,97356.81
2022-09-15T01:56:54.784Z,97358.53
2022-09-15T01:59:21.406Z,97350.47
2022-09-15T02:01:58.838Z,97361.47
2022-09-15T02:04:36.702Z,97363.56
2022-09-15T02:07:08.030Z,97367.81
2022-09-15T02:09:40.186Z,97373.97
2022-09-15T02:12:29.168Z,97373.00
2022-09-15T02:15:01.056Z,97375.38
2022-09-15T02:17:31.290Z,97373.56
2022-09-15T02:20:10.124Z,97373.41
2022-09-15T02:22:40.555Z,97371.25
2022-09-15T02:25:12.895Z,97362.81
2022-09-15T02:27:44.740Z,97354.09
2022-09-15T02:30:15.136Z,97366.97
2022-09-15T02:32:49.077Z,97358.72
2022-09-15T02:35:17.261Z,97357.94
2022-09-15T02:37:44.869Z,97354.75
2022-09-15T02:40:11.597Z,97358.53
2022-09-15T02:42:39.237Z,97354.28
2022-09-15T02:45:06.663Z,97352.59
2022-09-15T02:47:33.263Z,97351.28
2022-09-15T02:50:00.160Z,97355.34
2022-09-15T02:52:26.769Z,97358.53
2022-09-15T02:54:54.339Z,97358.25
2022-09-15T02:57:21.048Z,97361.50
2022-09-15T03:00:03.386Z,97365.47
2022-09-15T03:02:30.186Z,97362.78
2022-09-15T03:04:56.831Z,97362.00
2022-09-15T03:07:23.499Z,97362.47
2022-09-15T03:09:50.398Z,97353.47
2022-09-15T03:12:17.756Z,97356.13
2022-09-15T03:14:44.500Z,97361.78
2022-09-15T03:17:11.056Z,97358.63
2022-09-15T03:19:37.800Z,97356.72
2022-09-15T03:22:04.916Z,97357.50
2022-09-15T03:24:31.485Z,97350.59
2022-09-15T03:26:58.012Z,97352.16
2022-09-15T03:29:24.624Z,97354.06
2022-09-15T03:31:51.636Z,97353.28
2022-09-15T03:34:18.411Z,97350.59
2022-09-15T03:36:44.999Z,97350.59
2022-09-15T03:39:12.608Z,97352.16
2022-09-15T03:41:39.148Z,97339.88
2022-09-15T03:44:05.880Z,97346.53
2022-09-15T03:46:32.970Z,97344.56
2022-09-15T03:48:59.580Z,97340.38
2022-09-15T03:51:26.129Z,97342.28
2022-09-15T03:53:52.836Z,97336.09
2022-09-15T03:56:31.702Z,97352.16
2022-09-15T03:58:59.690Z,97342.28
2022-09-15T04:01:26.335Z,97347.09
2022-09-15T04:03:53.066Z,97340.16
2022-09-15T04:06:21.617Z,97337.22
2022-09-15T04:08:50.626Z,97331.88
2022-09-15T04:11:19.822Z,97323.53
2022-09-15T04:13:47.066Z,97326.22
2022-09-15T04:16:17.192Z,97318.97
2022-09-15T04:18:44.711Z,97315.22
2022-09-15T04:21:14.842Z,97327.22
2022-09-15T04:23:42.567Z,97311.16
2022-09-15T04:26:16.759Z,97310.16
2022-09-15T04:28:43.415Z,97311.75
2022-09-15T04:31:13.476Z,97313.13
2022-09-15T04:33:42.483Z,97312.31
2022-09-15T04:36:15.889Z,97320.56
2022-09-15T04:38:43.355Z,97325.13
2022-09-15T04:41:10.596Z,97315.59
2022-09-15T04:43:37.534Z,97321.72
2022-09-15T04:46:04.480Z,97322.84
2022-09-15T04:48:31.942Z,97319.88
2022-09-15T04:51:03.781Z,97320.66
2022-09-15T04:53:30.992Z,97322.47
2022-09-15T04:56:06.567Z,97314.13
2022-09-15T04:58:42.713Z,97313.53
2022-09-15T05:01:10.984Z,97303.13
2022-09-15T05:03:38.406Z,97306.97
2022-09-15T05:06:07.518Z,97307.56
2022-09-15T05:08:34.213Z,97306.28
2022-09-15T05:11:02.823Z,97312.69
2022-09-15T05:13:29.440Z,97314.91
2022-09-15T05:15:57.540Z,97319.13
2022-09-15T05:18:24.490Z,97325.22
2022-09-15T05:20:58.862Z,97327.06
2022-09-15T05:23:25.416Z,97325.78
2022-09-15T05:25:56.807Z,97314.00
2022-09-15T05:28:24.833Z,97315.09
2022-09-15T05:30:52.972Z,97326.00
2022-09-15T05:33:21.291Z,97341.56
2022-09-15T05:35:51.960Z,97346.91
2022-09-15T05:38:18.535Z,97351.97
2022-09-15T05:40:45.683Z,97359.72
2022-09-15T05:43:12.706Z,97362.38
2022-09-15T05:45:41.605Z,97365.84
2022-09-15T05:48:10.374Z,97367.44
2022-09-15T05:50:38.543Z,97363.69
2022-09-15T05:53:07.542Z,97358.81
2022-09-15T05:55:38.131Z,97363.91
2022-09-15T05:58:04.727Z,97370.34
2022-09-15T06:00:31.327Z,97367.06
2022-09-15T06:02:57.989Z,97369.13
2022-09-15T06:05:24.637Z,97376.91
2022-09-15T06:07:53.908Z,97381.66
2022-09-15T06:10:22.789Z,97387.72
2022-09-15T06:12:49.554Z,97397.63
2022-09-15T06:15:16.191Z,97400.53
2022-09-15T06:17:42.719Z,97404.75
2022-09-15T06:20:10.034Z,97402.91
2022-09-15T06:22:36.604Z,97400.41
2022-09-15T06:25:03.414Z,97398.53
2022-09-15T06:27:30.027Z,97407.88
2022-09-15T06:29:56.607Z,97411.78
2022-09-15T06:32:23.411Z,97397.56
2022-09-15T06:34:50.025Z,97401.25
2022-09-15T06:37:16.774Z,97407.91
2022-09-15T06:39:44.337Z,97413.78
2022-09-15T06:42:13.749Z,97399.47
2022-09-15T06:44:40.671Z,97408.81
2022-09-15T06:47:07.462Z,97407.94
2022-09-15T06:49:34.036Z,97408.41
2022-09-15T06:52:02.552Z,97414.78
2022-09-15T06:54:29.183Z,97409.94
2022-09-15T06:56:55.862Z,97410.13
2022-09-15T06:59:24.596Z,97410.91
2022-09-15T07:01:54.655Z,97414.09
2022-09-15T07:04:22.198Z,97410.31
2022-09-15T07:06:50.471Z,97410.13
2022-09-15T07:09:17.079Z,97414.41
2022-09-15T07:11:43.653Z,97411.72
2022-09-15T07:14:11.163Z,97414.88
2022-09-15T07:16:37.914Z,97412.09
2022-09-15T07:19:05.976Z,97416.66
2022-09-15T07:21:33.648Z,97417.75
2022-09-15T07:24:04.982Z,97415.16
2022-09-15T07:26:33.946Z,97412.56
2022-09-15T07:29:03.215Z,97416.38
2022-09-15T07:31:33.571Z,97411.28
2022-09-15T07:34:01.143Z,97411.19
2022-09-15T07:36:28.247Z,97415.25
2022-09-15T07:38:54.804Z,97412.16
2022-09-15T07:41:23.815Z,97409.94
2022-09-15T07:43:53.071Z,97418.06
2022-09-15T07:46:21.813Z,97424.03
2022-09-15T07:48:50.205Z,97426.41
2022-09-15T07:51:17.548Z,97435.75
2022-09-15T07:53:46.786Z,97450.25
2022-09-15T07:56:14.347Z,97460.78
2022-09-15T07:58:40.972Z,97469.97
2022-09-15T08:01:11.600Z,97472.28
2022-09-15T08:03:42.794Z,97475.03
2022-09-15T08:06:10.177Z,97491.84
2022-09-15T08:08:39.577Z,97486.34
2022-09-15T08:11:14.039Z,97475.66
2022-09-15T08:13:43.159Z,97469.38
2022-09-15T08:16:12.776Z,97473.06
2022-09-15T08:18:42.121Z,97462.81
2022-09-15T08:21:12.603Z,97461.53
2022-09-15T08:23:39.540Z,97465.19
2022-09-15T08:26:11.782Z,97465.59
2022-09-15T08:28:40.585Z,97469.81
2022-09-15T08:31:09.137Z,97469.72
2022-09-15T08:33:36.054Z,97467.56
2022-09-15T08:36:06.306Z,97467.66
2022-09-15T08:38:36.665Z,97468.72
2022-09-15T08:41:07.718Z,97463.38
2022-09-15T08:43:42.626Z,97457.94
2022-09-15T08:46:15.778Z,97462.00
2022-09-15T08:48:53.063Z,97463.97
2022-09-15T08:51:28.487Z,97458.66
2022-09-15T08:54:03.301Z,97452.78
2022-09-15T08:56:30.681Z,97459.53
2022-09-15T08:58:57.375Z,97468.09
2022-09-15T09:01:35.826Z,97462.91
2022-09-15T09:04:04.453Z,97468.28
2022-09-15T09:06:52.892Z,97467.66
2022-09-15T09:09:20.492Z,97476.09
2022-09-15T09:12:03.625Z,97456.03
2022-09-15T09:14:53.100Z,97467.19
2022-09-15T09:17:49.698Z,97446.78
2022-09-15T09:20:32.129Z,97445.53
2022-09-15T09:23:01.233Z,97436.72
2022-09-15T09:25:28.510Z,97446.78
2022-09-15T09:27:58.387Z,97440.19
2022-09-15T09:30:29.028Z,97441.50
2022-09-15T09:33:10.881Z,97439.34
2022-09-15T09:35:45.853Z,97454.09
2022-09-15T09:38:19.938Z,97446.66
2022-09-15T09:40:47.164Z,97436.72
2022-09-15T09:43:13.841Z,97438.41
2022-09-15T09:45:40.404Z,97439.50
2022-09-15T09:48:18.152Z,97426.63
2022-09-15T09:50:45.071Z,97428.09
2022-09-15T09:53:33.743Z,97426.53
2022-09-15T09:56:18.512Z,97418.72
2022-09-15T09:58:45.344Z,97416.75
2022-09-15T10:01:14.878Z,97420.56
2022-09-15T10:03:43.898Z,97408.81
2022-09-15T10:06:22.367Z,97410.22
2022-09-15T10:09:20.420Z,97398.69
2022-09-15T10:11:48.492Z,97399.00
2022-09-15T10:14:36.281Z,97404.88
2022-09-15T10:17:08.995Z,97392.34
2022-09-15T10:19:47.319Z,97401.47
2022-09-15T10:22:33.736Z,97392.25
2022-09-15T10:25:02.653Z,97398.50
2022-09-15T10:27:32.844Z,97394.31
2022-09-15T10:30:14.687Z,97387.47
2022-09-15T10:32:42.567Z,97379.63
2022-09-15T10:35:12.908Z,97380.13
2022-09-15T10:37:55.786Z,97373.75
2022-09-15T10:40:39.578Z,97376.34
2022-09-15T10:43:36.573Z,97377.03
2022-09-15T10:46:23.999Z,97371.69
2022-09-15T10:48:52.105Z,97357.41
2022-09-15T10:51:19.698Z,97363.44
2022-09-15T10:53:48.371Z,97367.28
2022-09-15T10:56:22.222Z,97363.44
2022-09-15T10:59:19.196Z,97367.78
2022-09-15T11:02:07.742Z,97364.00
2022-09-15T11:04:58.350Z,97354.34
2022-09-15T11:07:40.272Z,97352.25
2022-09-15T11:10:32.738Z,97345.47
2022-09-15T11:13:20.860Z,97344.84
2022-09-15T11:15:47.412Z,97342.88
2022-09-15T11:18:44.227Z,97349.13
2022-09-15T11:21:22.057Z,97339.75
2022-09-15T11:24:11.756Z,97331.00
2022-09-15T11:26:44.115Z,97330.31
2022-09-15T11:29:28.162Z,97326.13
2022-09-15T11:34:45.196Z,97320.53
2022-09-15T11:37:19.701Z,97323.34
2022-09-15T11:39:56.667Z,97318.81
2022-09-15T11:42:31.070Z,97316.81
2022-09-15T11:45:00.002Z,97315.28
2022-09-15T11:47:26.548Z,97311.16
2022-09-15T11:50:04.038Z,97305.19
2022-09-15T11:52:44.871Z,97303.13
2022-09-15T11:55:23.215Z,97297.69
2022-09-15T11:57:50.759Z,97283.28
2022-09-15T12:00:17.396Z,97288.69
2022-09-15T12:02:58.273Z,97277.31
2022-09-15T12:05:29.129Z,97277.00
2022-09-15T12:08:04.192Z,97265.66
2022-09-15T12:10:40.274Z,97265.03
2022-09-15T12:13:12.212Z,97259.00
2022-09-15T12:15:39.194Z,97250.94
2022-09-15T12:18:44.846Z,97247.94
2022-09-15T12:21:18.627Z,97240.22
2022-09-15T12:24:11.080Z,97237.53
2022-09-15T12:26:38.577Z,97245.59
2022-09-15T12:29:25.992Z,97256.22
2022-09-15T12:32:20.841Z,97247.63
2022-09-15T12:35:02.764Z,97259.75
2022-09-15T12:37:35.220Z,97253.72
2022-09-15T12:40:07.785Z,97247.31
2022-09-15T12:42:37.200Z,97249.22
2022-09-15T12:45:20.188Z,97238.72
2022-09-15T12:48:07.156Z,97235.38
2022-09-15T12:50:41.025Z,97248.06
2022-09-15T12:53:23.291Z,97233.63
2022-09-15T12:55:55.435Z,97230.81
2022-09-15T12:58:33.339Z,97235.03
2022-09-15T13:01:35.352Z,97231.75
2022-09-15T13:04:02.145Z,97227.94
2022-09-15T13:06:29.471Z,97219.38
2022-09-15T13:09:26.696Z,97220.47
2022-09-15T13:11:54.591Z,97244.09
2022-09-15T13:14:27.934Z,97254.72
2022-09-15T13:17:16.645Z,97300.56
2022-09-15T13:19:47.810Z,97325.97
2022-09-15T13:22:27.265Z,97324.59
2022-09-15T13:25:02.064Z,97328.31
2022-09-15T13:27:43.993Z,97315.72
2022-09-15T13:30:26.915Z,97315.56
2022-09-15T13:33:22.415Z,97318.47
2022-09-15T13:36:07.961Z,97324.28
2022-09-15T13:38:44.260Z,97315.09
2022-09-15T13:41:42.942Z,97312.34
2022-09-15T13:44:29.415Z,97300.16
2022-09-15T13:46:55.920Z,97298.25
2022-09-15T13:49:53.447Z,97293.34
2022-09-15T13:52:22.256Z,97288.81
2022-09-15T13:55:27.818Z,97302.38
2022-09-15T14:00:58.797Z,97321.53
2022-09-15T14:03:37.005Z,97310.41
2022-09-15T14:06:12.271Z,97302.13
2022-09-15T14:08:40.584Z,97302.66
2022-09-15T14:11:13.129Z,97304.06
2022-09-15T14:13:46.346Z,97305.28
2022-09-15T14:16:30.561Z,97317.31
2022-09-15T14:18:58.664Z,97318.91
2022-09-15T14:21:28.096Z,97322.25
2022-09-15T14:23:57.181Z,97324.63
2022-09-15T14:26:26.893Z,97328.59
2022-09-15T14:28:58.991Z,97329.84
2022-09-15T14:31:43.459Z,97332.22
2022-09-15T14:34:19.985Z,97336.66
2022-09-15T14:36:54.358Z,97320.66
2022-09-15T14:39:22.287Z,97316.88
2022-09-15T14:41:50.335Z,97319.53
2022-09-15T14:47:12.961Z,97317.69
2022-09-15T14:49:39.798Z,97334.09
2022-09-15T14:52:22.687Z,97321.28
2022-09-15T14:54:50.597Z,97322.56
2022-09-15T14:57:23.227Z,97318.81
2022-09-15T14:59:55.766Z,97308.53
2022-09-15T15:02:38.839Z,97302.19
2022-09-15T15:05:14.901Z,97308.97
2022-09-15T15:07:42.869Z,97311.97
2022-09-15T15:10:20.093Z,97319.53
2022-09-15T15:12:52.389Z,97313.88
2022-09-15T15:15:19.776Z,97319.97
2022-09-15T15:17:50.906Z,97321.72
2022-09-15T15:20:22.892Z,97317.97
2022-09-15T15:23:22.110Z,97312.63
2022-09-15T15:25:48.749Z,97309.94
2022-09-15T15:28:35.982Z,97315.00
2022-09-15T15:31:12.399Z,97322.09
2022-09-15T15:33:46.576Z,97324.34
2022-09-15T15:36:13.797Z,97325.91
2022-09-15T15:38:51.306Z,97321.28
2022-09-15T15:41:24.649Z,97319.41
2022-09-15T15:43:57.204Z,97316.19
2022-09-15T15:46:49.134Z,97329.00
2022-09-15T15:49:16.898Z,97335.16
2022-09-15T15:51:44.051Z,97339.88
2022-09-15T15:54:11.096Z,97341.09
2022-09-15T15:56:38.143Z,97347.06
2022-09-15T15:59:05.816Z,97349.88
2022-09-15T16:01:33.316Z,97351.69
2022-09-15T16:04:00.050Z,97353.09
2022-09-15T16:06:27.116Z,97349.56
2022-09-15T16:08:56.060Z,97342.53
2022-09-15T16:11:22.642Z,97346.59
2022-09-15T16:13:49.327Z,97351.97
2022-09-15T16:16:19.674Z,97344.09
2022-09-15T16:18:48.134Z,97347.88
2022-09-15T16:21:19.125Z,97345.09
2022-09-15T16:23:46.578Z,97343.84
2022-09-15T16:26:16.781Z,97343.06
2022-09-15T16:28:43.648Z,97343.63
2022-09-15T16:31:13.347Z,97345.84
2022-09-15T16:33:41.759Z,97341.06
2022-09-15T16:36:12.553Z,97348.22
2022-09-15T16:38:39.685Z,97344.25
2022-09-15T16:41:15.771Z,97338.91
2022-09-15T16:43:43.288Z,97336.63
2022-09-15T16:46:11.840Z,97335.34
2022-09-15T16:48:40.062Z,97344.25
2022-09-15T16:51:30.869Z,97352.56
2022-09-15T16:53:59.518Z,97362.75
2022-09-15T16:56:26.999Z,97369.63
2022-09-15T16:58:58.820Z,97385.69
2022-09-15T17:01:26.038Z,97396.03
2022-09-15T17:03:52.669Z,97401.41
2022-09-15T17:06:19.546Z,97401.28
2022-09-15T17:08:46.183Z,97392.06
2022-09-15T17:11:16.816Z,97398.50
2022-09-15T17:13:44.437Z,97395.13
2022-09-15T17:16:13.897Z,97395.53
2022-09-15T17:18:40.972Z,97396.03
2022-09-15T17:21:11.054Z,97399.88
2022-09-15T17:23:40.351Z,97402.66
2022-09-15T17:26:12.473Z,97409.59
2022-09-15T17:28:39.755Z,97400.41
2022-09-15T17:31:23.041Z,97395.25
2022-09-15T17:33:50.929Z,97406.53
2022-09-15T17:36:18.188Z,97408.44
2022-09-15T17:38:45.454Z,97407.22
2022-09-15T17:41:16.021Z,97406.22
2022-09-15T17:43:42.967Z,97414.66
2022-09-15T17:46:09.635Z,97410.41
2022-09-15T17:48:38.978Z,97415.31
2022-09-15T17:51:07.234Z,97417.44
2022-09-15T17:53:36.517Z,97421.25
2022-09-15T17:56:03.146Z,97428.84
2022-09-15T17:58:31.439Z,97433.41
2022-09-15T18:00:58.648Z,97433.72
2022-09-15T18:03:26.896Z,97436.69
2022-09-15T18:05:55.512Z,97433.28
2022-09-15T18:08:22.301Z,97447.41
2022-09-15T18:10:48.978Z,97448.47
2022-09-15T18:13:19.050Z,97455.19
2022-09-15T18:15:46.261Z,97454.31
2022-09-15T18:18:16.621Z,97462.28
2022-09-15T18:20:43.520Z,97452.59
2022-09-15T18:23:14.034Z,97464.09
2022-09-15T18:25:41.763Z,97468.28
2022-09-15T18:28:09.098Z,97461.50
2022-09-15T18:30:40.719Z,97463.22
2022-09-15T18:33:14.045Z,97461.00
2022-09-15T18:35:41.379Z,97461.88
2022-09-15T18:38:08.599Z,97461.06
2022-09-15T18:40:35.844Z,97459.47
2022-09-15T18:43:02.633Z,97458.69
2022-09-15T18:45:29.261Z,97466.63
2022-09-15T18:47:55.899Z,97480.72
2022-09-15T18:50:25.259Z,97485.28
2022-09-15T18:52:51.850Z,97477.19
2022-09-15T18:55:21.853Z,97488.09
2022-09-15T18:57:49.128Z,97504.72
2022-09-15T19:00:19.087Z,97499.25
2022-09-15T19:02:46.052Z,97510.97
2022-09-15T19:05:17.124Z,97501.56
2022-09-15T19:07:44.825Z,97508.78
2022-09-15T19:10:13.668Z,97510.06
2022-09-15T19:12:40.925Z,97517.09
2022-09-15T19:15:12.046Z,97520.53
2022-09-15T19:17:39.828Z,97521.31
2022-09-15T19:20:08.741Z,97527.25
2022-09-15T19:22:36.748Z,97539.16
2022-09-15T19:25:04.788Z,97540.25
2022-09-15T19:27:31.534Z,97548.66
2022-09-15T19:29:58.245Z,97547.63
2022-09-15T19:32:24.873Z,97552.19
2022-09-15T19:34:51.505Z,97549.16
2022-09-15T19:37:20.908Z,97554.03
2022-09-15T19:39:48.340Z,97577.50
2022-09-15T19:44:48.051Z,97577.03
2022-09-15T19:47:15.013Z,97589.56
2022-09-15T19:49:41.640Z,97595.41
2022-09-15T19:52:08.184Z,97597.66
2022-09-15T19:54:35.050Z,97597.25
2022-09-15T19:57:02.109Z,97597.72
2022-09-15T19:59:31.597Z,97603.13
2022-09-15T20:01:59.627Z,97603.72
2022-09-15T20:04:27.186Z,97605.97
2022-09-15T20:06:53.807Z,97611.56
2022-09-15T20:09:20.577Z,97616.78
2022-09-15T20:11:47.235Z,97618.31
2022-09-15T20:14:13.978Z,97617.88
2022-09-15T20:16:41.210Z,97631.97
2022-09-15T20:19:10.877Z,97635.78
2022-09-15T20:21:50.343Z,97636.69
2022-09-15T20:24:18.593Z,97639.94
2022-09-15T20:26:45.189Z,97660.09
2022-09-15T20:29:12.243Z,97656.06
2022-09-15T20:31:39.430Z,97650.19
2022-09-15T20:34:06.240Z,97657.50
2022-09-15T20:36:36.111Z,97651.88
2022-09-15T20:39:04.790Z,97654.69
2022-09-15T20:41:37.889Z,97661.66
2022-09-15T20:44:06.027Z,97655.22
2022-09-15T20:46:33.561Z,97658.41
2022-09-15T20:49:00.453Z,97663.47
2022-09-15T20:51:31.584Z,97673.13
2022-09-15T20:53:59.866Z,97684.97
2022-09-15T20:56:28.943Z,97686.63
2022-09-15T20:58:58.466Z,97698.09
2022-09-15T21:01:28.236Z,97701.88
2022-09-15T21:03:56.068Z,97712.06
2022-09-15T21:06:26.135Z,97712.06
2022-09-15T21:08:54.020Z,97702.75
2022-09-15T21:11:21.322Z,97698.69
2022-09-15T21:13:49.426Z,97709.38
2022-09-15T21:16:18.638Z,97720.13
2022-09-15T21:18:45.742Z,97731.63
2022-09-15T21:21:15.537Z,97735.13
2022-09-15T21:23:44.539Z,97745.00
2022-09-15T21:26:20.932Z,97735.41
2022-09-15T21:28:48.800Z,97749.53
2022-09-15T21:31:19.172Z,97746.88
2022-09-15T21:33:47.348Z,97745.03
2022-09-15T21:36:18.004Z,97741.78
2022-09-15T21:38:45.418Z,97744.19
2022-09-15T21:41:15.703Z,97746.63
2022-09-15T21:43:44.919Z,97763.44
2022-09-15T21:46:13.784Z,97765.59
2022-09-15T21:48:41.113Z,97762.09
2022-09-15T21:51:11.577Z,97769.06
2022-09-15T21:53:38.709Z,97770.94
2022-09-15T21:56:08.537Z,97764.25
2022-09-15T21:58:42.412Z,97769.06
2022-09-15T22:01:20.311Z,97766.13
2022-09-15T22:03:49.877Z,97773.59
2022-09-15T22:06:19.275Z,97770.41
2022-09-15T22:08:46.714Z,97770.94
2022-09-15T22:11:14.240Z,97785.34
2022-09-15T22:13:43.679Z,97779.75
2022-09-15T22:16:13.886Z,97778.94
2022-09-15T22:18:41.628Z,97777.34
2022-09-15T22:21:10.164Z,97784.84
2022-09-15T22:23:37.221Z,97785.06
2022-09-15T22:26:06.416Z,97786.97
2022-09-15T22:28:33.072Z,97790.69
2022-09-15T22:31:01.322Z,97793.34
2022-09-15T22:33:28.613Z,97798.19
2022-09-15T22:35:57.021Z,97807.78
2022-09-15T22:38:25.323Z,97807.50
2022-09-15T22:40:51.943Z,97809.91
2022-09-15T22:43:18.588Z,97808.03
2022-09-15T22:45:45.213Z,97809.38
2022-09-15T22:48:12.342Z,97816.84
2022-09-15T22:50:39.000Z,97813.91
2022-09-15T22:53:06.045Z,97818.44
2022-09-15T22:55:32.919Z,97814.69
2022-09-15T22:57:59.601Z,97811.75
2022-09-15T23:00:26.833Z,97816.84
2022-09-15T23:02:53.580Z,97814.97
2022-09-15T23:05:20.237Z,97817.09
2022-09-15T23:07:46.793Z,97817.63
2022-09-15T23:10:13.487Z,97803.47
2022-09-15T23:12:40.302Z,97806.69
2022-09-15T23:15:07.519Z,97806.41
2022-09-15T23:17:34.480Z,97807.75
2022-09-15T23:20:01.487Z,97801.91
2022-09-15T23:22:28.141Z,97796.28
2022-09-15T23:24:54.891Z,97807.25
2022-09-15T23:27:21.530Z,97805.38
2022-09-15T23:29:48.135Z,97812.03
2022-09-15T23:32:14.735Z,97808.03
2022-09-15T23:34:41.324Z,97809.91
2022-09-15T23:37:07.866Z,97796.03
2022-09-15T23:39:34.425Z,97811.50
2022-09-15T23:42:01.309Z,97810.97
2022-09-15T23:44:27.973Z,97822.69
2022-09-15T23:46:54.619Z,97823.78
2022-09-15T23:49:21.192Z,97820.03
2022-09-15T23:51:47.795Z,97818.69
2022-09-15T23:54:14.545Z,97809.41
2022-09-15T23:56:41.159Z,97810.47
2022-09-15T23:59:07.699Z,97811.53
